sensor_id;sensor_type;location;lat;lon;timestamp;pressure;altitude;pressure_sealevel;temperature;humidity
12963;BME280;6546;49.882;8.666;2023-02-28T00:01:20;101107.22;;;1.15;54.51
12963;BME280;6546;49.882;8.666;2023-02-28T00:03:47;101106.56;;;1.11;54.86
12963;BME280;6546;49.882;8.666;2023-02-28T00:06:14;101119.25;;;1.13;55.22
12963;BME280;6546;49.882;8.666;2023-02-28T00:08:41;101090.97;;;1.00;55.03
12963;BME280;6546;49.882;8.666;2023-02-28T00:11:11;101116.22;;;1.04;54.94
12963;BME280;6546;49.882;8.666;2023-02-28T00:13:40;101112.13;;;1.02;55.00
12963;BME280;6546;49.882;8.666;2023-02-28T00:16:10;101109.47;;;1.03;55.23
12963;BME280;6546;49.882;8.666;2023-02-28T00:18:38;101110.81;;;1.11;55.35
12963;BME280;6546;49.882;8.666;2023-02-28T00:21:06;101107.84;;;1.02;55.37
12963;BME280;6546;49.882;8.666;2023-02-28T00:23:34;101118.88;;;1.03;55.56
12963;BME280;6546;49.882;8.666;2023-02-28T00:26:01;101114.44;;;1.07;55.64
12963;BME280;6546;49.882;8.666;2023-02-28T00:28:29;101112.94;;;1.02;55.89
12963;BME280;6546;49.882;8.666;2023-02-28T00:30:56;101114.56;;;1.03;55.58
12963;BME280;6546;49.882;8.666;2023-02-28T00:33:25;101116.47;;;1.00;55.49
12963;BME280;6546;49.882;8.666;2023-02-28T00:35:52;101111.44;;;0.98;55.54
12963;BME280;6546;49.882;8.666;2023-02-28T00:38:18;101102.22;;;0.96;55.76
12963;BME280;6546;49.882;8.666;2023-02-28T00:40:45;101106.34;;;0.98;55.85
12963;BME280;6546;49.882;8.666;2023-02-28T00:43:12;101113.84;;;1.01;55.61
12963;BME280;6546;49.882;8.666;2023-02-28T00:45:40;101113.09;;;0.99;56.14
12963;BME280;6546;49.882;8.666;2023-02-28T00:48:07;101111.59;;;0.95;55.75
12963;BME280;6546;49.882;8.666;2023-02-28T00:50:34;101112.28;;;0.99;55.97
12963;BME280;6546;49.882;8.666;2023-02-28T00:53:00;101105.28;;;0.85;55.94
12963;BME280;6546;49.882;8.666;2023-02-28T00:55:27;101116.69;;;0.95;55.90
12963;BME280;6546;49.882;8.666;2023-02-28T00:57:53;101109.19;;;0.92;56.39
12963;BME280;6546;49.882;8.666;2023-02-28T01:00:20;101107.00;;;0.85;56.79
12963;BME280;6546;49.882;8.666;2023-02-28T01:02:48;101115.13;;;0.93;56.60
12963;BME280;6546;49.882;8.666;2023-02-28T01:05:15;101117.88;;;0.88;56.95
12963;BME280;6546;49.882;8.666;2023-02-28T01:07:42;101120.38;;;0.90;56.75
12963;BME280;6546;49.882;8.666;2023-02-28T01:10:10;101122.91;;;0.90;56.76
12963;BME280;6546;49.882;8.666;2023-02-28T01:12:37;101119.38;;;0.92;56.29
12963;BME280;6546;49.882;8.666;2023-02-28T01:15:04;101113.97;;;0.81;56.49
12963;BME280;6546;49.882;8.666;2023-02-28T01:17:31;101121.19;;;0.90;56.38
12963;BME280;6546;49.882;8.666;2023-02-28T01:19:59;101113.75;;;0.86;56.41
12963;BME280;6546;49.882;8.666;2023-02-28T01:22:26;101111.22;;;0.86;56.68
12963;BME280;6546;49.882;8.666;2023-02-28T01:24:53;101114.06;;;0.80;56.85
12963;BME280;6546;49.882;8.666;2023-02-28T01:27:19;101108.88;;;0.81;57.32
12963;BME280;6546;49.882;8.666;2023-02-28T01:29:46;101110.47;;;0.84;57.28
12963;BME280;6546;49.882;8.666;2023-02-28T01:32:13;101100.88;;;0.89;57.04
12963;BME280;6546;49.882;8.666;2023-02-28T01:34:40;101104.69;;;0.80;57.21
12963;BME280;6546;49.882;8.666;2023-02-28T01:37:08;101100.66;;;0.76;56.92
12963;BME280;6546;49.882;8.666;2023-02-28T01:39:35;101100.94;;;0.70;57.25
12963;BME280;6546;49.882;8.666;2023-02-28T01:42:02;101100.50;;;0.79;57.49
12963;BME280;6546;49.882;8.666;2023-02-28T01:44:55;101105.59;;;0.79;57.13
12963;BME280;6546;49.882;8.666;2023-02-28T01:47:26;101100.28;;;0.84;57.19
12963;BME280;6546;49.882;8.666;2023-02-28T01:49:58;101093.22;;;0.72;57.53
12963;BME280;6546;49.882;8.666;2023-02-28T01:52:29;101099.44;;;0.66;57.89
12963;BME280;6546;49.882;8.666;2023-02-28T01:54:58;101097.91;;;0.62;58.04
12963;BME280;6546;49.882;8.666;2023-02-28T01:57:29;101089.09;;;0.69;57.78
12963;BME280;6546;49.882;8.666;2023-02-28T02:00:08;101096.53;;;0.74;58.02
12963;BME280;6546;49.882;8.666;2023-02-28T02:02:39;101084.47;;;0.77;57.87
12963;BME280;6546;49.882;8.666;2023-02-28T02:05:09;101089.31;;;0.82;57.97
12963;BME280;6546;49.882;8.666;2023-02-28T02:07:39;101086.84;;;0.80;58.10
12963;BME280;6546;49.882;8.666;2023-02-28T02:10:11;101085.50;;;0.73;58.12
12963;BME280;6546;49.882;8.666;2023-02-28T02:13:03;101085.03;;;0.65;58.39
12963;BME280;6546;49.882;8.666;2023-02-28T02:15:34;101082.50;;;0.65;58.71
12963;BME280;6546;49.882;8.666;2023-02-28T02:18:09;101079.03;;;0.66;58.97
12963;BME280;6546;49.882;8.666;2023-02-28T02:24:03;101076.59;;;0.65;59.04
12963;BME280;6546;49.882;8.666;2023-02-28T02:26:51;101066.53;;;0.62;59.14
12963;BME280;6546;49.882;8.666;2023-02-28T02:32:54;101076.94;;;0.57;59.65
12963;BME280;6546;49.882;8.666;2023-02-28T02:35:28;101074.56;;;0.54;59.65
12963;BME280;6546;49.882;8.666;2023-02-28T02:38:04;101066.00;;;0.55;59.72
12963;BME280;6546;49.882;8.666;2023-02-28T02:40:37;101067.50;;;0.59;59.82
12963;BME280;6546;49.882;8.666;2023-02-28T02:43:09;101077.69;;;0.59;59.73
12963;BME280;6546;49.882;8.666;2023-02-28T02:45:43;101068.31;;;0.60;59.64
12963;BME280;6546;49.882;8.666;2023-02-28T02:48:13;101070.03;;;0.59;59.85
12963;BME280;6546;49.882;8.666;2023-02-28T02:50:45;101071.50;;;0.65;59.83
12963;BME280;6546;49.882;8.666;2023-02-28T02:53:14;101067.34;;;0.62;59.96
12963;BME280;6546;49.882;8.666;2023-02-28T02:55:45;101064.91;;;0.61;59.75
12963;BME280;6546;49.882;8.666;2023-02-28T02:58:21;101070.19;;;0.56;60.04
12963;BME280;6546;49.882;8.666;2023-02-28T03:00:52;101066.66;;;0.59;60.04
12963;BME280;6546;49.882;8.666;2023-02-28T03:03:20;101074.25;;;0.60;59.77
12963;BME280;6546;49.882;8.666;2023-02-28T03:05:56;101079.56;;;0.56;60.03
12963;BME280;6546;49.882;8.666;2023-02-28T03:08:23;101075.91;;;0.61;60.13
12963;BME280;6546;49.882;8.666;2023-02-28T03:10:51;101072.75;;;0.56;60.24
12963;BME280;6546;49.882;8.666;2023-02-28T03:13:37;101082.63;;;0.62;59.99
12963;BME280;6546;49.882;8.666;2023-02-28T03:16:27;101078.53;;;0.60;60.08
12963;BME280;6546;49.882;8.666;2023-02-28T03:19:03;101079.34;;;0.60;59.77
12963;BME280;6546;49.882;8.666;2023-02-28T03:21:38;101075.91;;;0.61;59.63
12963;BME280;6546;49.882;8.666;2023-02-28T03:24:08;101075.22;;;0.58;59.66
12963;BME280;6546;49.882;8.666;2023-02-28T03:26:40;101071.72;;;0.60;59.83
12963;BME280;6546;49.882;8.666;2023-02-28T03:29:13;101068.84;;;0.66;59.72
12963;BME280;6546;49.882;8.666;2023-02-28T03:31:45;101065.09;;;0.56;59.84
12963;BME280;6546;49.882;8.666;2023-02-28T03:34:19;101074.56;;;0.54;59.76
12963;BME280;6546;49.882;8.666;2023-02-28T03:36:53;101060.50;;;0.45;60.12
12963;BME280;6546;49.882;8.666;2023-02-28T03:39:23;101075.78;;;0.45;60.29
12963;BME280;6546;49.882;8.666;2023-02-28T03:41:57;101065.59;;;0.45;60.43
12963;BME280;6546;49.882;8.666;2023-02-28T03:44:30;101074.69;;;0.51;60.50
12963;BME280;6546;49.882;8.666;2023-02-28T03:47:02;101077.31;;;0.49;60.59
12963;BME280;6546;49.882;8.666;2023-02-28T03:49:32;101079.13;;;0.47;60.71
12963;BME280;6546;49.882;8.666;2023-02-28T03:52:04;101079.63;;;0.37;61.01
12963;BME280;6546;49.882;8.666;2023-02-28T03:54:38;101077.69;;;0.42;61.06
12963;BME280;6546;49.882;8.666;2023-02-28T03:57:12;101079.56;;;0.38;61.13
12963;BME280;6546;49.882;8.666;2023-02-28T03:59:43;101082.84;;;0.40;61.22
12963;BME280;6546;49.882;8.666;2023-02-28T04:02:11;101088.00;;;0.39;61.37
12963;BME280;6546;49.882;8.666;2023-02-28T04:04:38;101081.34;;;0.36;61.56
12963;BME280;6546;49.882;8.666;2023-02-28T04:07:11;101076.91;;;0.40;61.51
12963;BME280;6546;49.882;8.666;2023-02-28T04:09:38;101083.81;;;0.38;61.40
12963;BME280;6546;49.882;8.666;2023-02-28T04:12:05;101082.91;;;0.22;61.73
12963;BME280;6546;49.882;8.666;2023-02-28T04:14:32;101080.78;;;0.30;61.73
12963;BME280;6546;49.882;8.666;2023-02-28T04:16:58;101076.63;;;0.29;61.75
12963;BME280;6546;49.882;8.666;2023-02-28T04:19:25;101091.47;;;0.38;61.67
12963;BME280;6546;49.882;8.666;2023-02-28T04:21:53;101092.06;;;0.43;61.50
12963;BME280;6546;49.882;8.666;2023-02-28T04:24:23;101083.97;;;0.35;61.52
12963;BME280;6546;49.882;8.666;2023-02-28T04:26:52;101079.41;;;0.41;61.58
12963;BME280;6546;49.882;8.666;2023-02-28T04:29:22;101085.25;;;0.43;61.26
12963;BME280;6546;49.882;8.666;2023-02-28T04:31:48;101081.13;;;0.41;61.49
12963;BME280;6546;49.882;8.666;2023-02-28T04:34:15;101078.28;;;0.47;61.32
12963;BME280;6546;49.882;8.666;2023-02-28T04:36:44;101078.13;;;0.50;61.40
12963;BME280;6546;49.882;8.666;2023-02-28T04:39:11;101084.41;;;0.43;61.42
12963;BME280;6546;49.882;8.666;2023-02-28T04:41:39;101077.06;;;0.37;61.31
12963;BME280;6546;49.882;8.666;2023-02-28T04:44:05;101080.50;;;0.36;61.54
12963;BME280;6546;49.882;8.666;2023-02-28T04:46:32;101085.88;;;0.30;61.81
12963;BME280;6546;49.882;8.666;2023-02-28T04:48:58;101079.03;;;0.32;61.80
12963;BME280;6546;49.882;8.666;2023-02-28T04:51:25;101079.75;;;0.34;61.77
12963;BME280;6546;49.882;8.666;2023-02-28T04:53:52;101079.91;;;0.31;61.84
12963;BME280;6546;49.882;8.666;2023-02-28T04:56:19;101082.91;;;0.22;61.78
12963;BME280;6546;49.882;8.666;2023-02-28T04:58:47;101081.97;;;0.23;61.65
12963;BME280;6546;49.882;8.666;2023-02-28T05:01:22;101086.81;;;0.29;61.87
12963;BME280;6546;49.882;8.666;2023-02-28T05:03:50;101079.84;;;0.32;61.73
12963;BME280;6546;49.882;8.666;2023-02-28T05:06:21;101083.44;;;0.28;62.00
12963;BME280;6546;49.882;8.666;2023-02-28T05:08:49;101078.84;;;0.18;61.91
12963;BME280;6546;49.882;8.666;2023-02-28T05:11:18;101087.97;;;0.22;62.01
12963;BME280;6546;49.882;8.666;2023-02-28T05:13:46;101083.63;;;0.24;62.36
12963;BME280;6546;49.882;8.666;2023-02-28T05:16:13;101086.03;;;0.27;62.18
12963;BME280;6546;49.882;8.666;2023-02-28T05:18:40;101088.66;;;0.25;61.62
12963;BME280;6546;49.882;8.666;2023-02-28T05:21:23;101084.66;;;0.20;61.96
12963;BME280;6546;49.882;8.666;2023-02-28T05:23:50;101082.25;;;0.17;61.83
12963;BME280;6546;49.882;8.666;2023-02-28T05:26:17;101082.41;;;0.14;61.75
12963;BME280;6546;49.882;8.666;2023-02-28T05:28:44;101084.34;;;0.09;61.89
12963;BME280;6546;49.882;8.666;2023-02-28T05:31:12;101084.22;;;0.12;62.12
12963;BME280;6546;49.882;8.666;2023-02-28T05:33:38;101083.56;;;0.07;61.77
12963;BME280;6546;49.882;8.666;2023-02-28T05:36:06;101083.38;;;0.11;61.49
12963;BME280;6546;49.882;8.666;2023-02-28T05:38:32;101082.69;;;0.08;61.98
12963;BME280;6546;49.882;8.666;2023-02-28T05:40:59;101082.69;;;0.08;61.85
12963;BME280;6546;49.882;8.666;2023-02-28T05:43:26;101084.56;;;0.04;61.79
12963;BME280;6546;49.882;8.666;2023-02-28T05:45:52;101085.47;;;0.03;61.72
12963;BME280;6546;49.882;8.666;2023-02-28T05:48:20;101089.09;;;-0.03;61.70
12963;BME280;6546;49.882;8.666;2023-02-28T05:50:47;101094.19;;;-0.03;61.95
12963;BME280;6546;49.882;8.666;2023-02-28T05:53:14;101103.44;;;0.00;61.66
12963;BME280;6546;49.882;8.666;2023-02-28T05:55:40;101100.66;;;0.05;61.50
12963;BME280;6546;49.882;8.666;2023-02-28T05:58:07;101107.59;;;0.01;61.61
12963;BME280;6546;49.882;8.666;2023-02-28T06:00:34;101097.28;;;0.04;61.60
12963;BME280;6546;49.882;8.666;2023-02-28T06:03:01;101107.41;;;0.06;61.74
12963;BME280;6546;49.882;8.666;2023-02-28T06:05:29;101110.84;;;0.05;61.49
12963;BME280;6546;49.882;8.666;2023-02-28T06:07:55;101109.25;;;0.02;61.65
12963;BME280;6546;49.882;8.666;2023-02-28T06:10:22;101108.28;;;0.05;61.65
12963;BME280;6546;49.882;8.666;2023-02-28T06:12:49;101116.16;;;0.00;61.47
12963;BME280;6546;49.882;8.666;2023-02-28T06:15:16;101111.72;;;0.04;61.71
12963;BME280;6546;49.882;8.666;2023-02-28T06:17:43;101116.91;;;-0.17;62.04
12963;BME280;6546;49.882;8.666;2023-02-28T06:20:11;101117.38;;;-0.09;61.75
12963;BME280;6546;49.882;8.666;2023-02-28T06:22:40;101115.81;;;-0.11;62.07
12963;BME280;6546;49.882;8.666;2023-02-28T06:25:07;101107.13;;;-0.26;61.93
12963;BME280;6546;49.882;8.666;2023-02-28T06:27:34;101120.16;;;-0.13;62.17
12963;BME280;6546;49.882;8.666;2023-02-28T06:30:01;101119.22;;;-0.12;62.04
12963;BME280;6546;49.882;8.666;2023-02-28T06:32:27;101121.44;;;-0.05;62.15
12963;BME280;6546;49.882;8.666;2023-02-28T06:34:54;101122.31;;;-0.06;61.61
12963;BME280;6546;49.882;8.666;2023-02-28T06:37:22;101123.84;;;-0.02;61.77
12963;BME280;6546;49.882;8.666;2023-02-28T06:39:53;101123.84;;;-0.02;61.71
12963;BME280;6546;49.882;8.666;2023-02-28T06:42:21;101123.16;;;-0.05;61.59
12963;BME280;6546;49.882;8.666;2023-02-28T06:44:50;101135.69;;;-0.01;61.43
12963;BME280;6546;49.882;8.666;2023-02-28T06:47:16;101131.06;;;0.08;61.71
12963;BME280;6546;49.882;8.666;2023-02-28T06:49:43;101127.69;;;0.07;61.16
12963;BME280;6546;49.882;8.666;2023-02-28T06:52:10;101126.13;;;0.05;60.93
12963;BME280;6546;49.882;8.666;2023-02-28T06:54:37;101136.56;;;-0.02;61.32
12963;BME280;6546;49.882;8.666;2023-02-28T06:57:05;101145.66;;;0.04;61.25
12963;BME280;6546;49.882;8.666;2023-02-28T06:59:31;101141.94;;;-0.08;61.27
12963;BME280;6546;49.882;8.666;2023-02-28T07:01:58;101136.75;;;-0.06;61.50
12963;BME280;6546;49.882;8.666;2023-02-28T07:04:25;101151.00;;;-0.02;61.05
12963;BME280;6546;49.882;8.666;2023-02-28T07:06:53;101144.97;;;0.00;60.83
12963;BME280;6546;49.882;8.666;2023-02-28T07:09:21;101143.19;;;0.03;60.65
12963;BME280;6546;49.882;8.666;2023-02-28T07:11:47;101138.84;;;0.05;60.89
12963;BME280;6546;49.882;8.666;2023-02-28T07:14:15;101141.78;;;0.14;60.42
12963;BME280;6546;49.882;8.666;2023-02-28T07:16:42;101148.31;;;0.20;60.54
12963;BME280;6546;49.882;8.666;2023-02-28T07:19:09;101145.63;;;0.23;60.11
12963;BME280;6546;49.882;8.666;2023-02-28T07:21:36;101146.25;;;0.28;59.78
12963;BME280;6546;49.882;8.666;2023-02-28T07:24:03;101150.47;;;0.29;58.86
12963;BME280;6546;49.882;8.666;2023-02-28T07:26:30;101149.69;;;0.27;59.12
12963;BME280;6546;49.882;8.666;2023-02-28T07:28:59;101144.28;;;0.16;58.99
12963;BME280;6546;49.882;8.666;2023-02-28T07:31:27;101143.59;;;0.12;58.67
12963;BME280;6546;49.882;8.666;2023-02-28T07:33:53;101151.56;;;0.05;58.59
12963;BME280;6546;49.882;8.666;2023-02-28T07:36:21;101153.09;;;0.09;58.89
12963;BME280;6546;49.882;8.666;2023-02-28T07:38:48;101157.63;;;0.21;58.47
12963;BME280;6546;49.882;8.666;2023-02-28T07:41:17;101157.84;;;0.16;58.20
12963;BME280;6546;49.882;8.666;2023-02-28T07:43:44;101151.06;;;0.34;58.37
12963;BME280;6546;49.882;8.666;2023-02-28T07:46:12;101138.34;;;0.34;58.00
12963;BME280;6546;49.882;8.666;2023-02-28T07:48:41;101136.53;;;0.36;57.66
12963;BME280;6546;49.882;8.666;2023-02-28T07:51:08;101152.75;;;0.52;57.28
12963;BME280;6546;49.882;8.666;2023-02-28T07:53:35;101142.16;;;0.61;57.07
12963;BME280;6546;49.882;8.666;2023-02-28T07:56:02;101146.88;;;0.69;56.96
12963;BME280;6546;49.882;8.666;2023-02-28T07:58:29;101146.97;;;0.84;56.92
12963;BME280;6546;49.882;8.666;2023-02-28T08:00:56;101152.66;;;0.72;55.75
12963;BME280;6546;49.882;8.666;2023-02-28T08:03:24;101156.03;;;0.73;55.78
12963;BME280;6546;49.882;8.666;2023-02-28T08:05:52;101151.63;;;0.76;55.89
12963;BME280;6546;49.882;8.666;2023-02-28T08:08:19;101154.00;;;0.79;55.73
12963;BME280;6546;49.882;8.666;2023-02-28T08:10:45;101147.09;;;0.81;55.44
12963;BME280;6546;49.882;8.666;2023-02-28T08:13:12;101146.81;;;1.04;55.75
12963;BME280;6546;49.882;8.666;2023-02-28T08:15:40;101145.31;;;1.00;54.35
12963;BME280;6546;49.882;8.666;2023-02-28T08:18:07;101146.63;;;1.09;54.59
12963;BME280;6546;49.882;8.666;2023-02-28T08:20:33;101143.22;;;1.09;54.39
12963;BME280;6546;49.882;8.666;2023-02-28T08:23:01;101149.22;;;1.25;54.71
12963;BME280;6546;49.882;8.666;2023-02-28T08:25:28;101149.75;;;1.31;54.31
12963;BME280;6546;49.882;8.666;2023-02-28T08:27:54;101148.38;;;1.41;54.14
12963;BME280;6546;49.882;8.666;2023-02-28T08:30:21;101154.00;;;1.48;53.63
12963;BME280;6546;49.882;8.666;2023-02-28T08:32:48;101142.63;;;1.38;52.66
12963;BME280;6546;49.882;8.666;2023-02-28T08:35:14;101144.50;;;1.34;52.88
12963;BME280;6546;49.882;8.666;2023-02-28T08:37:41;101147.63;;;1.39;53.02
12963;BME280;6546;49.882;8.666;2023-02-28T08:40:11;101148.91;;;1.48;51.79
12963;BME280;6546;49.882;8.666;2023-02-28T08:42:43;101139.75;;;1.44;52.05
12963;BME280;6546;49.882;8.666;2023-02-28T08:45:10;101133.31;;;1.37;51.88
12963;BME280;6546;49.882;8.666;2023-02-28T08:47:37;101137.41;;;1.39;51.92
12963;BME280;6546;49.882;8.666;2023-02-28T08:50:05;101137.03;;;1.47;52.19
12963;BME280;6546;49.882;8.666;2023-02-28T08:52:31;101123.44;;;1.46;51.70
12963;BME280;6546;49.882;8.666;2023-02-28T08:54:58;101145.34;;;1.68;51.92
12963;BME280;6546;49.882;8.666;2023-02-28T08:57:26;101140.84;;;1.55;51.40
12963;BME280;6546;49.882;8.666;2023-02-28T08:59:53;101137.31;;;1.58;51.48
12963;BME280;6546;49.882;8.666;2023-02-28T09:02:19;101144.09;;;1.75;51.65
12963;BME280;6546;49.882;8.666;2023-02-28T09:04:46;101142.81;;;1.83;51.06
12963;BME280;6546;49.882;8.666;2023-02-28T09:07:12;101146.56;;;1.76;50.47
12963;BME280;6546;49.882;8.666;2023-02-28T09:09:39;101152.00;;;1.70;50.95
12963;BME280;6546;49.882;8.666;2023-02-28T09:12:19;101133.25;;;1.71;50.66
12963;BME280;6546;49.882;8.666;2023-02-28T09:14:47;101133.09;;;1.74;50.53
12963;BME280;6546;49.882;8.666;2023-02-28T09:17:13;101135.06;;;1.85;50.40
12963;BME280;6546;49.882;8.666;2023-02-28T09:19:40;101141.09;;;1.84;50.35
12963;BME280;6546;49.882;8.666;2023-02-28T09:22:07;101131.94;;;1.80;49.75
12963;BME280;6546;49.882;8.666;2023-02-28T09:24:35;101129.28;;;1.81;50.10
12963;BME280;6546;49.882;8.666;2023-02-28T09:27:01;101128.47;;;1.81;50.00
12963;BME280;6546;49.882;8.666;2023-02-28T09:29:28;101132.09;;;1.92;49.59
12963;BME280;6546;49.882;8.666;2023-02-28T09:31:56;101125.00;;;1.97;49.26
12963;BME280;6546;49.882;8.666;2023-02-28T09:34:24;101123.47;;;1.95;48.61
12963;BME280;6546;49.882;8.666;2023-02-28T09:36:50;101133.09;;;2.05;49.03
12963;BME280;6546;49.882;8.666;2023-02-28T09:39:20;101136.38;;;2.07;49.47
12963;BME280;6546;49.882;8.666;2023-02-28T09:41:49;101132.59;;;2.15;49.08
12963;BME280;6546;49.882;8.666;2023-02-28T09:44:25;101132.38;;;2.19;49.01
12963;BME280;6546;49.882;8.666;2023-02-28T09:46:57;101127.94;;;2.23;48.41
12963;BME280;6546;49.882;8.666;2023-02-28T09:49:31;101126.28;;;2.22;48.04
12963;BME280;6546;49.882;8.666;2023-02-28T09:52:02;101132.44;;;2.18;48.17
12963;BME280;6546;49.882;8.666;2023-02-28T09:54:32;101117.59;;;2.24;47.54
12963;BME280;6546;49.882;8.666;2023-02-28T09:57:01;101128.31;;;2.31;46.99
12963;BME280;6546;49.882;8.666;2023-02-28T09:59:53;101124.53;;;2.38;46.21
12963;BME280;6546;49.882;8.666;2023-02-28T10:02:47;101143.47;;;2.34;46.90
12963;BME280;6546;49.882;8.666;2023-02-28T10:05:16;101123.69;;;2.53;46.03
12963;BME280;6546;49.882;8.666;2023-02-28T10:07:53;101127.00;;;2.55;45.33
12963;BME280;6546;49.882;8.666;2023-02-28T10:10:28;101136.47;;;2.53;45.74
12963;BME280;6546;49.882;8.666;2023-02-28T10:12:58;101141.63;;;2.67;46.26
12963;BME280;6546;49.882;8.666;2023-02-28T10:15:29;101126.13;;;2.70;45.25
12963;BME280;6546;49.882;8.666;2023-02-28T10:17:59;101137.31;;;2.83;44.65
12963;BME280;6546;49.882;8.666;2023-02-28T10:20:29;101134.34;;;2.75;44.61
12963;BME280;6546;49.882;8.666;2023-02-28T10:23:03;101132.94;;;2.85;45.02
12963;BME280;6546;49.882;8.666;2023-02-28T10:25:33;101132.63;;;3.05;44.54
12963;BME280;6546;49.882;8.666;2023-02-28T10:28:05;101137.13;;;2.86;43.71
12963;BME280;6546;49.882;8.666;2023-02-28T10:30:35;101136.91;;;2.75;44.00
12963;BME280;6546;49.882;8.666;2023-02-28T10:33:04;101128.50;;;2.73;43.98
12963;BME280;6546;49.882;8.666;2023-02-28T10:35:31;101125.22;;;2.71;43.89
12963;BME280;6546;49.882;8.666;2023-02-28T10:38:00;101136.19;;;2.73;44.20
12963;BME280;6546;49.882;8.666;2023-02-28T10:40:35;101150.94;;;2.84;44.22
12963;BME280;6546;49.882;8.666;2023-02-28T10:43:04;101133.28;;;2.79;43.50
12963;BME280;6546;49.882;8.666;2023-02-28T10:45:32;101136.56;;;2.81;43.59
12963;BME280;6546;49.882;8.666;2023-02-28T10:48:02;101132.84;;;2.87;43.61
12963;BME280;6546;49.882;8.666;2023-02-28T10:50:35;101126.56;;;2.92;44.11
12963;BME280;6546;49.882;8.666;2023-02-28T10:53:17;101118.16;;;2.90;43.91
12963;BME280;6546;49.882;8.666;2023-02-28T10:55:56;101130.59;;;2.96;43.97
12963;BME280;6546;49.882;8.666;2023-02-28T10:58:23;101131.16;;;3.01;43.59
12963;BME280;6546;49.882;8.666;2023-02-28T11:00:51;101130.97;;;3.04;43.29
12963;BME280;6546;49.882;8.666;2023-02-28T11:03:29;101114.00;;;3.03;43.35
12963;BME280;6546;49.882;8.666;2023-02-28T11:05:58;101120.66;;;3.06;43.37
12963;BME280;6546;49.882;8.666;2023-02-28T11:08:25;101125.94;;;3.03;43.21
12963;BME280;6546;49.882;8.666;2023-02-28T11:10:56;101124.41;;;3.00;43.27
12963;BME280;6546;49.882;8.666;2023-02-28T11:13:31;101126.97;;;3.00;43.11
12963;BME280;6546;49.882;8.666;2023-02-28T11:16:00;101124.41;;;3.00;43.16
12963;BME280;6546;49.882;8.666;2023-02-28T11:18:30;101122.69;;;3.15;43.55
12963;BME280;6546;49.882;8.666;2023-02-28T11:21:03;101118.41;;;3.15;43.37
12963;BME280;6546;49.882;8.666;2023-02-28T11:23:32;101116.38;;;3.21;43.30
12963;BME280;6546;49.882;8.666;2023-02-28T11:26:02;101118.88;;;3.22;42.89
12963;BME280;6546;49.882;8.666;2023-02-28T11:28:32;101115.91;;;3.14;43.18
12963;BME280;6546;49.882;8.666;2023-02-28T11:31:06;101114.22;;;3.29;42.71
12963;BME280;6546;49.882;8.666;2023-02-28T11:33:41;101111.28;;;3.35;42.58
12963;BME280;6546;49.882;8.666;2023-02-28T11:36:14;101120.25;;;3.42;42.57
12963;BME280;6546;49.882;8.666;2023-02-28T11:38:41;101103.25;;;3.41;42.44
12963;BME280;6546;49.882;8.666;2023-02-28T11:41:29;101094.47;;;3.31;42.47
12963;BME280;6546;49.882;8.666;2023-02-28T11:44:08;101117.13;;;3.37;42.64
12963;BME280;6546;49.882;8.666;2023-02-28T11:46:44;101105.81;;;3.55;42.42
12963;BME280;6546;49.882;8.666;2023-02-28T11:49:31;101112.56;;;3.70;41.54
12963;BME280;6546;49.882;8.666;2023-02-28T11:52:09;101109.47;;;3.51;42.10
12963;BME280;6546;49.882;8.666;2023-02-28T11:54:59;101100.88;;;3.52;42.64
12963;BME280;6546;49.882;8.666;2023-02-28T11:57:35;101112.03;;;3.51;41.68
12963;BME280;6546;49.882;8.666;2023-02-28T12:00:17;101097.56;;;3.50;41.28
12963;BME280;6546;49.882;8.666;2023-02-28T12:02:56;101115.31;;;3.67;41.68
12963;BME280;6546;49.882;8.666;2023-02-28T12:05:29;101098.66;;;3.60;41.39
12963;BME280;6546;49.882;8.666;2023-02-28T12:08:06;101089.53;;;3.56;41.74
12963;BME280;6546;49.882;8.666;2023-02-28T12:10:44;101095.19;;;3.61;41.75
12963;BME280;6546;49.882;8.666;2023-02-28T12:13:21;101098.84;;;3.71;41.80
12963;BME280;6546;49.882;8.666;2023-02-28T12:18:56;101091.69;;;3.62;41.47
12963;BME280;6546;49.882;8.666;2023-02-28T12:21:37;101101.22;;;3.74;41.37
12963;BME280;6546;49.882;8.666;2023-02-28T12:24:28;101102.31;;;3.70;40.88
12963;BME280;6546;49.882;8.666;2023-02-28T12:27:02;101094.72;;;3.68;41.18
12963;BME280;6546;49.882;8.666;2023-02-28T12:29:36;101093.09;;;3.67;41.30
12963;BME280;6546;49.882;8.666;2023-02-28T12:32:06;101092.06;;;3.84;41.18
12963;BME280;6546;49.882;8.666;2023-02-28T12:34:37;101090.78;;;3.77;41.67
12963;BME280;6546;49.882;8.666;2023-02-28T12:37:09;101105.41;;;3.89;41.97
12963;BME280;6546;49.882;8.666;2023-02-28T12:39:41;101103.03;;;3.86;41.57
12963;BME280;6546;49.882;8.666;2023-02-28T12:42:13;101091.69;;;3.76;41.78
12963;BME280;6546;49.882;8.666;2023-02-28T12:44:44;101094.72;;;3.83;42.38
12963;BME280;6546;49.882;8.666;2023-02-28T12:47:14;101085.81;;;3.88;42.28
12963;BME280;6546;49.882;8.666;2023-02-28T12:49:45;101082.53;;;3.86;41.65
12963;BME280;6546;49.882;8.666;2023-02-28T12:52:16;101079.97;;;3.86;41.98
12963;BME280;6546;49.882;8.666;2023-02-28T12:54:49;101079.03;;;4.01;41.88
12963;BME280;6546;49.882;8.666;2023-02-28T12:57:27;101075.94;;;3.96;41.44
12963;BME280;6546;49.882;8.666;2023-02-28T12:59:56;101070.63;;;3.99;41.44
12963;BME280;6546;49.882;8.666;2023-02-28T13:03:03;101081.16;;;3.95;41.53
12963;BME280;6546;49.882;8.666;2023-02-28T13:05:53;101071.84;;;3.94;41.72
12963;BME280;6546;49.882;8.666;2023-02-28T13:08:43;101074.44;;;4.06;41.48
12963;BME280;6546;49.882;8.666;2023-02-28T13:11:25;101062.22;;;3.97;41.40
12963;BME280;6546;49.882;8.666;2023-02-28T13:13:58;101057.91;;;3.98;41.68
12963;BME280;6546;49.882;8.666;2023-02-28T13:16:25;101062.75;;;4.02;41.93
12963;BME280;6546;49.882;8.666;2023-02-28T13:18:52;101068.19;;;4.10;41.15
12963;BME280;6546;49.882;8.666;2023-02-28T13:21:42;101064.69;;;4.26;41.40
12963;BME280;6546;49.882;8.666;2023-02-28T13:24:10;101058.63;;;4.27;41.66
12963;BME280;6546;49.882;8.666;2023-02-28T13:29:43;101054.28;;;4.14;40.67
12963;BME280;6546;49.882;8.666;2023-02-28T13:32:28;101063.22;;;4.21;40.82
12963;BME280;6546;49.882;8.666;2023-02-28T13:35:32;101056.56;;;4.19;40.44
12963;BME280;6546;49.882;8.666;2023-02-28T13:38:22;101066.81;;;4.19;40.99
12963;BME280;6546;49.882;8.666;2023-02-28T13:40:49;101060.59;;;4.23;40.72